sensor_id;sensor_type;location;lat;lon;timestamp;P1;durP1;ratioP1;P2;durP2;ratioP2
7211;SDS011;3647;48.792;9.802;2023-01-28T09:01:40;22.80;;;13.10;;
7211;SDS011;3647;48.792;9.802;2023-01-28T09:04:07;17.50;;;12.03;;
7211;SDS011;3647;48.792;9.802;2023-01-28T09:06:34;21.73;;;13.00;;
7211;SDS011;3647;48.792;9.802;2023-01-28T09:09:00;21.63;;;12.80;;
7211;SDS011;3647;48.792;9.802;2023-01-28T09:11:28;21.83;;;13.30;;
7211;SDS011;3647;48.792;9.802;2023-01-28T09:13:55;19.37;;;12.63;;
7211;SDS011;3647;48.792;9.802;2023-01-28T09:16:22;21.63;;;12.73;;
7211;SDS011;3647;48.792;9.802;2023-01-28T09:18:52;21.03;;;12.80;;
7211;SDS011;3647;48.792;9.802;2023-01-28T09:21:19;23.03;;;14.23;;
7211;SDS011;3647;48.792;9.802;2023-01-28T09:23:46;21.60;;;13.33;;
7211;SDS011;3647;48.792;9.802;2023-01-28T09:26:13;21.40;;;13.13;;
7211;SDS011;3647;48.792;9.802;2023-01-28T09:28:39;19.73;;;12.60;;
7211;SDS011;3647;48.792;9.802;2023-01-28T09:31:07;24.33;;;12.23;;
7211;SDS011;3647;48.792;9.802;2023-01-28T09:33:37;20.20;;;12.83;;
7211;SDS011;3647;48.792;9.802;2023-01-28T09:36:07;21.83;;;13.87;;
7211;SDS011;3647;48.792;9.802;2023-01-28T09:38:36;25.37;;;14.07;;
7211;SDS011;3647;48.792;9.802;2023-01-28T09:41:08;23.47;;;13.67;;
7211;SDS011;3647;48.792;9.802;2023-01-28T09:43:48;20.87;;;13.03;;
7211;SDS011;3647;48.792;9.802;2023-01-28T09:46:26;21.63;;;13.17;;
7211;SDS011;3647;48.792;9.802;2023-01-28T09:48:57;27.40;;;13.83;;
7211;SDS011;3647;48.792;9.802;2023-01-28T09:51:32;23.63;;;14.40;;
7211;SDS011;3647;48.792;9.802;2023-01-28T09:54:05;23.43;;;13.63;;
7211;SDS011;3647;48.792;9.802;2023-01-28T09:56:40;20.73;;;13.37;;
7211;SDS011;3647;48.792;9.802;2023-01-28T09:59:14;22.87;;;13.03;;
7211;SDS011;3647;48.792;9.802;2023-01-28T10:01:45;23.37;;;12.70;;
7211;SDS011;3647;48.792;9.802;2023-01-28T10:04:20;21.03;;;13.60;;
7211;SDS011;3647;48.792;9.802;2023-01-28T10:06:58;21.83;;;13.43;;
7211;SDS011;3647;48.792;9.802;2023-01-28T10:09:37;23.57;;;12.73;;
7211;SDS011;3647;48.792;9.802;2023-01-28T10:12:14;23.80;;;13.97;;
7211;SDS011;3647;48.792;9.802;2023-01-28T10:14:58;22.07;;;13.13;;
7211;SDS011;3647;48.792;9.802;2023-01-28T10:17:51;22.20;;;13.20;;
7211;SDS011;3647;48.792;9.802;2023-01-28T10:20:22;21.03;;;13.87;;
7211;SDS011;3647;48.792;9.802;2023-01-28T10:22:54;20.30;;;12.40;;
7211;SDS011;3647;48.792;9.802;2023-01-28T10:25:27;21.07;;;12.13;;
7211;SDS011;3647;48.792;9.802;2023-01-28T10:27:56;22.13;;;12.07;;
7211;SDS011;3647;48.792;9.802;2023-01-28T10:30:26;24.90;;;14.53;;
7211;SDS011;3647;48.792;9.802;2023-01-28T10:32:58;22.07;;;14.80;;
7211;SDS011;3647;48.792;9.802;2023-01-28T10:35:28;20.50;;;12.77;;
7211;SDS011;3647;48.792;9.802;2023-01-28T10:38:01;23.00;;;14.37;;
7211;SDS011;3647;48.792;9.802;2023-01-28T10:40:32;21.40;;;12.67;;
7211;SDS011;3647;48.792;9.802;2023-01-28T10:43:00;22.03;;;13.17;;
7211;SDS011;3647;48.792;9.802;2023-01-28T10:45:27;19.97;;;13.43;;
7211;SDS011;3647;48.792;9.802;2023-01-28T10:48:01;23.40;;;13.53;;
7211;SDS011;3647;48.792;9.802;2023-01-28T10:50:32;22.27;;;14.70;;
7211;SDS011;3647;48.792;9.802;2023-01-28T10:53:02;26.43;;;14.00;;
7211;SDS011;3647;48.792;9.802;2023-01-28T10:55:43;21.30;;;13.03;;
7211;SDS011;3647;48.792;9.802;2023-01-28T10:58:16;23.13;;;13.63;;
7211;SDS011;3647;48.792;9.802;2023-01-28T11:00:45;19.67;;;11.70;;
7211;SDS011;3647;48.792;9.802;2023-01-28T11:03:18;23.83;;;13.10;;
7211;SDS011;3647;48.792;9.802;2023-01-28T11:05:50;22.83;;;13.50;;
7211;SDS011;3647;48.792;9.802;2023-01-28T11:08:22;21.60;;;13.70;;
7211;SDS011;3647;48.792;9.802;2023-01-28T11:10:50;23.03;;;13.60;;
7211;SDS011;3647;48.792;9.802;2023-01-28T11:13:18;23.60;;;14.17;;
7211;SDS011;3647;48.792;9.802;2023-01-28T11:15:47;19.77;;;12.20;;
7211;SDS011;3647;48.792;9.802;2023-01-28T11:18:16;23.73;;;13.00;;
7211;SDS011;3647;48.792;9.802;2023-01-28T11:20:48;18.50;;;12.83;;
7211;SDS011;3647;48.792;9.802;2023-01-28T11:23:20;22.17;;;14.77;;
7211;SDS011;3647;48.792;9.802;2023-01-28T11:25:57;23.20;;;13.50;;
7211;SDS011;3647;48.792;9.802;2023-01-28T11:28:27;21.97;;;13.10;;
7211;SDS011;3647;48.792;9.802;2023-01-28T11:30:55;20.17;;;12.03;;
7211;SDS011;3647;48.792;9.802;2023-01-28T11:33:26;22.40;;;13.10;;
7211;SDS011;3647;48.792;9.802;2023-01-28T11:36:03;20.03;;;13.47;;
7211;SDS011;3647;48.792;9.802;2023-01-28T11:38:33;24.77;;;12.97;;
7211;SDS011;3647;48.792;9.802;2023-01-28T11:41:00;24.60;;;14.43;;
7211;SDS011;3647;48.792;9.802;2023-01-28T11:43:27;21.17;;;13.17;;
7211;SDS011;3647;48.792;9.802;2023-01-28T11:45:56;25.93;;;13.83;;
7211;SDS011;3647;48.792;9.802;2023-01-28T11:48:44;24.90;;;13.77;;
7211;SDS011;3647;48.792;9.802;2023-01-28T11:51:21;24.37;;;14.10;;
7211;SDS011;3647;48.792;9.802;2023-01-28T11:54:03;26.03;;;15.00;;
7211;SDS011;3647;48.792;9.802;2023-01-28T11:56:49;22.03;;;13.37;;
7211;SDS011;3647;48.792;9.802;2023-01-28T11:59:29;20.23;;;12.80;;
7211;SDS011;3647;48.792;9.802;2023-01-28T12:02:08;23.13;;;13.73;;
7211;SDS011;3647;48.792;9.802;2023-01-28T12:04:52;23.47;;;13.63;;
7211;SDS011;3647;48.792;9.802;2023-01-28T12:07:33;26.80;;;14.57;;
7211;SDS011;3647;48.792;9.802;2023-01-28T12:10:12;21.50;;;13.60;;
7211;SDS011;3647;48.792;9.802;2023-01-28T12:12:57;21.20;;;13.50;;
7211;SDS011;3647;48.792;9.802;2023-01-28T12:18:57;21.33;;;13.77;;
7211;SDS011;3647;48.792;9.802;2023-01-28T12:21:35;22.50;;;12.97;;
7211;SDS011;3647;48.792;9.802;2023-01-28T12:24:16;20.77;;;13.27;;
7211;SDS011;3647;48.792;9.802;2023-01-28T12:26:55;21.77;;;13.40;;
7211;SDS011;3647;48.792;9.802;2023-01-28T12:29:33;19.60;;;13.00;;
7211;SDS011;3647;48.792;9.802;2023-01-28T12:32:15;23.33;;;13.60;;
7211;SDS011;3647;48.792;9.802;2023-01-28T12:38:10;22.20;;;13.40;;
7211;SDS011;3647;48.792;9.802;2023-01-28T12:40:44;23.17;;;14.40;;
7211;SDS011;3647;48.792;9.802;2023-01-28T12:43:19;26.97;;;13.90;;
7211;SDS011;3647;48.792;9.802;2023-01-28T12:45:50;22.13;;;13.30;;
7211;SDS011;3647;48.792;9.802;2023-01-28T12:48:23;23.57;;;14.07;;
7211;SDS011;3647;48.792;9.802;2023-01-28T12:50:56;22.80;;;13.20;;
7211;SDS011;3647;48.792;9.802;2023-01-28T12:53:28;20.17;;;12.57;;
7211;SDS011;3647;48.792;9.802;2023-01-28T12:56:03;22.60;;;13.13;;
7211;SDS011;3647;48.792;9.802;2023-01-28T12:58:38;22.63;;;13.77;;
7211;SDS011;3647;48.792;9.802;2023-01-28T13:01:11;19.17;;;12.27;;
7211;SDS011;3647;48.792;9.802;2023-01-28T13:03:42;21.13;;;12.70;;
7211;SDS011;3647;48.792;9.802;2023-01-28T13:06:18;19.63;;;12.40;;
7211;SDS011;3647;48.792;9.802;2023-01-28T13:08:48;20.93;;;11.47;;
7211;SDS011;3647;48.792;9.802;2023-01-28T13:11:21;17.87;;;11.33;;
7211;SDS011;3647;48.792;9.802;2023-01-28T13:13:51;20.33;;;11.67;;
7211;SDS011;3647;48.792;9.802;2023-01-28T13:16:18;19.30;;;11.77;;
7211;SDS011;3647;48.792;9.802;2023-01-28T13:18:45;17.00;;;9.13;;
7211;SDS011;3647;48.792;9.802;2023-01-28T13:21:13;15.90;;;11.43;;
7211;SDS011;3647;48.792;9.802;2023-01-28T13:23:43;13.57;;;8.80;;
7211;SDS011;3647;48.792;9.802;2023-01-28T13:26:26;18.83;;;11.77;;
7211;SDS011;3647;48.792;9.802;2023-01-28T13:29:07;11.97;;;8.67;;
7211;SDS011;3647;48.792;9.802;2023-01-28T13:31:43;16.10;;;9.90;;
7211;SDS011;3647;48.792;9.802;2023-01-28T13:34:24;15.63;;;8.80;;
7211;SDS011;3647;48.792;9.802;2023-01-28T13:36:54;15.30;;;10.20;;
7211;SDS011;3647;48.792;9.802;2023-01-28T13:39:24;15.10;;;9.50;;
7211;SDS011;3647;48.792;9.802;2023-01-28T13:41:52;11.17;;;8.47;;
7211;SDS011;3647;48.792;9.802;2023-01-28T13:44:27;15.20;;;9.10;;
7211;SDS011;3647;48.792;9.802;2023-01-28T13:46:56;11.77;;;8.57;;
7211;SDS011;3647;48.792;9.802;2023-01-28T13:49:25;15.30;;;10.10;;
7211;SDS011;3647;48.792;9.802;2023-01-28T13:52:03;13.97;;;9.13;;
7211;SDS011;3647;48.792;9.802;2023-01-28T13:54:33;12.10;;;8.10;;
7211;SDS011;3647;48.792;9.802;2023-01-28T13:57:06;12.37;;;9.10;;
7211;SDS011;3647;48.792;9.802;2023-01-28T13:59:54;12.77;;;7.60;;
7211;SDS011;3647;48.792;9.802;2023-01-28T14:02:44;11.43;;;8.13;;
7211;SDS011;3647;48.792;9.802;2023-01-28T14:08:41;12.87;;;8.33;;
7211;SDS011;3647;48.792;9.802;2023-01-28T14:11:33;12.80;;;8.53;;
7211;SDS011;3647;48.792;9.802;2023-01-28T14:14:35;11.47;;;8.33;;
7211;SDS011;3647;48.792;9.802;2023-01-28T14:17:27;12.27;;;7.40;;
7211;SDS011;3647;48.792;9.802;2023-01-28T14:20:01;14.33;;;9.17;;
7211;SDS011;3647;48.792;9.802;2023-01-28T14:22:29;14.23;;;9.03;;
7211;SDS011;3647;48.792;9.802;2023-01-28T14:24:56;14.03;;;8.10;;
7211;SDS011;3647;48.792;9.802;2023-01-28T14:27:28;12.70;;;9.27;;
7211;SDS011;3647;48.792;9.802;2023-01-28T14:30:02;10.53;;;8.20;;
7211;SDS011;3647;48.792;9.802;2023-01-28T14:32:35;11.73;;;7.53;;
7211;SDS011;3647;48.792;9.802;2023-01-28T14:35:11;9.87;;;7.23;;
7211;SDS011;3647;48.792;9.802;2023-01-28T14:37:43;12.63;;;8.10;;
7211;SDS011;3647;48.792;9.802;2023-01-28T14:40:11;8.80;;;7.70;;
7211;SDS011;3647;48.792;9.802;2023-01-28T14:42:41;11.20;;;8.20;;
7211;SDS011;3647;48.792;9.802;2023-01-28T14:45:14;11.87;;;7.93;;
7211;SDS011;3647;48.792;9.802;2023-01-28T14:47:54;13.87;;;7.40;;
7211;SDS011;3647;48.792;9.802;2023-01-28T14:50:46;9.47;;;7.13;;
7211;SDS011;3647;48.792;9.802;2023-01-28T14:53:34;7.90;;;6.40;;
7211;SDS011;3647;48.792;9.802;2023-01-28T14:56:12;8.70;;;7.30;;
7211;SDS011;3647;48.792;9.802;2023-01-28T14:58:44;9.33;;;7.23;;
7211;SDS011;3647;48.792;9.802;2023-01-28T15:01:20;10.73;;;7.17;;
7211;SDS011;3647;48.792;9.802;2023-01-28T15:03:50;9.33;;;7.20;;
7211;SDS011;3647;48.792;9.802;2023-01-28T15:06:17;9.77;;;7.43;;
7211;SDS011;3647;48.792;9.802;2023-01-28T15:08:45;12.83;;;8.17;;
7211;SDS011;3647;48.792;9.802;2023-01-28T15:11:13;10.67;;;8.07;;
7211;SDS011;3647;48.792;9.802;2023-01-28T15:13:43;11.47;;;7.50;;
7211;SDS011;3647;48.792;9.802;2023-01-28T15:16:15;9.73;;;7.53;;
7211;SDS011;3647;48.792;9.802;2023-01-28T15:18:45;8.57;;;6.73;;
7211;SDS011;3647;48.792;9.802;2023-01-28T15:21:17;8.90;;;7.87;;
7211;SDS011;3647;48.792;9.802;2023-01-28T15:23:46;15.27;;;10.27;;
7211;SDS011;3647;48.792;9.802;2023-01-28T15:26:16;10.80;;;7.80;;
7211;SDS011;3647;48.792;9.802;2023-01-28T15:28:45;9.63;;;8.20;;
7211;SDS011;3647;48.792;9.802;2023-01-28T15:31:18;11.70;;;9.23;;
7211;SDS011;3647;48.792;9.802;2023-01-28T15:33:54;10.90;;;7.77;;
7211;SDS011;3647;48.792;9.802;2023-01-28T15:36:23;7.87;;;6.57;;
7211;SDS011;3647;48.792;9.802;2023-01-28T15:38:51;12.53;;;8.73;;
7211;SDS011;3647;48.792;9.802;2023-01-28T15:41:18;10.70;;;7.50;;
7211;SDS011;3647;48.792;9.802;2023-01-28T15:43:48;9.77;;;6.40;;
7211;SDS011;3647;48.792;9.802;2023-01-28T15:46:17;8.27;;;6.70;;
7211;SDS011;3647;48.792;9.802;2023-01-28T15:48:46;10.77;;;8.30;;
7211;SDS011;3647;48.792;9.802;2023-01-28T15:51:18;9.20;;;6.90;;
7211;SDS011;3647;48.792;9.802;2023-01-28T15:53:51;8.97;;;7.23;;
7211;SDS011;3647;48.792;9.802;2023-01-28T15:56:23;7.23;;;5.83;;
7211;SDS011;3647;48.792;9.802;2023-01-28T15:58:51;10.13;;;7.00;;
7211;SDS011;3647;48.792;9.802;2023-01-28T16:01:19;8.43;;;6.90;;
7211;SDS011;3647;48.792;9.802;2023-01-28T16:03:58;6.80;;;6.10;;
7211;SDS011;3647;48.792;9.802;2023-01-28T16:06:28;8.73;;;7.53;;
7211;SDS011;3647;48.792;9.802;2023-01-28T16:09:01;11.43;;;9.50;;
7211;SDS011;3647;48.792;9.802;2023-01-28T16:11:31;12.17;;;9.57;;
7211;SDS011;3647;48.792;9.802;2023-01-28T16:14:01;12.10;;;7.63;;
7211;SDS011;3647;48.792;9.802;2023-01-28T16:16:29;14.30;;;7.00;;
7211;SDS011;3647;48.792;9.802;2023-01-28T16:18:58;8.13;;;6.60;;
7211;SDS011;3647;48.792;9.802;2023-01-28T16:21:26;8.53;;;7.23;;
7211;SDS011;3647;48.792;9.802;2023-01-28T16:24:02;10.33;;;6.70;;
7211;SDS011;3647;48.792;9.802;2023-01-28T16:26:31;10.10;;;7.30;;
7211;SDS011;3647;48.792;9.802;2023-01-28T16:29:00;8.70;;;7.10;;
7211;SDS011;3647;48.792;9.802;2023-01-28T16:31:38;9.67;;;8.33;;
7211;SDS011;3647;48.792;9.802;2023-01-28T16:34:06;11.07;;;7.70;;
7211;SDS011;3647;48.792;9.802;2023-01-28T16:36:34;9.97;;;7.40;;
7211;SDS011;3647;48.792;9.802;2023-01-28T16:39:02;11.80;;;8.57;;
7211;SDS011;3647;48.792;9.802;2023-01-28T16:41:31;16.43;;;10.20;;
7211;SDS011;3647;48.792;9.802;2023-01-28T16:43:59;9.97;;;7.50;;
7211;SDS011;3647;48.792;9.802;2023-01-28T16:46:29;13.60;;;10.20;;
7211;SDS011;3647;48.792;9.802;2023-01-28T16:48:57;14.47;;;9.13;;
7211;SDS011;3647;48.792;9.802;2023-01-28T16:51:24;8.13;;;7.10;;
7211;SDS011;3647;48.792;9.802;2023-01-28T16:53:51;8.60;;;7.53;;
7211;SDS011;3647;48.792;9.802;2023-01-28T16:56:20;7.73;;;6.77;;
7211;SDS011;3647;48.792;9.802;2023-01-28T16:58:48;11.67;;;7.60;;
7211;SDS011;3647;48.792;9.802;2023-01-28T17:01:15;8.87;;;7.20;;
7211;SDS011;3647;48.792;9.802;2023-01-28T17:03:41;12.37;;;7.63;;
7211;SDS011;3647;48.792;9.802;2023-01-28T17:06:08;13.20;;;9.10;;
7211;SDS011;3647;48.792;9.802;2023-01-28T17:08:40;10.00;;;7.47;;
7211;SDS011;3647;48.792;9.802;2023-01-28T17:11:06;9.90;;;8.13;;
7211;SDS011;3647;48.792;9.802;2023-01-28T17:13:34;10.13;;;7.53;;
7211;SDS011;3647;48.792;9.802;2023-01-28T17:16:01;10.73;;;8.40;;
7211;SDS011;3647;48.792;9.802;2023-01-28T17:18:29;9.67;;;7.27;;
7211;SDS011;3647;48.792;9.802;2023-01-28T17:20:58;10.00;;;7.70;;
7211;SDS011;3647;48.792;9.802;2023-01-28T17:23:25;9.33;;;7.77;;
7211;SDS011;3647;48.792;9.802;2023-01-28T17:25:52;8.47;;;7.40;;
7211;SDS011;3647;48.792;9.802;2023-01-28T17:28:19;11.17;;;7.70;;
7211;SDS011;3647;48.792;9.802;2023-01-28T17:30:47;10.73;;;7.40;;
7211;SDS011;3647;48.792;9.802;2023-01-28T17:33:14;14.60;;;8.30;;
7211;SDS011;3647;48.792;9.802;2023-01-28T17:35:44;10.77;;;8.40;;
7211;SDS011;3647;48.792;9.802;2023-01-28T17:38:12;10.83;;;8.30;;
7211;SDS011;3647;48.792;9.802;2023-01-28T17:40:39;10.40;;;8.73;;
7211;SDS011;3647;48.792;9.802;2023-01-28T17:43:06;14.27;;;8.80;;
7211;SDS011;3647;48.792;9.802;2023-01-28T17:45:32;9.80;;;8.03;;
7211;SDS011;3647;48.792;9.802;2023-01-28T17:48:01;12.90;;;8.33;;
7211;SDS011;3647;48.792;9.802;2023-01-28T17:50:27;10.80;;;8.30;;
7211;SDS011;3647;48.792;9.802;2023-01-28T17:52:54;12.13;;;7.77;;
7211;SDS011;3647;48.792;9.802;2023-01-28T17:55:21;9.20;;;7.80;;
7211;SDS011;3647;48.792;9.802;2023-01-28T17:57:48;12.27;;;8.67;;
7211;SDS011;3647;48.792;9.802;2023-01-28T18:00:16;12.33;;;8.13;;
7211;SDS011;3647;48.792;9.802;2023-01-28T18:02:43;14.40;;;9.67;;
7211;SDS011;3647;48.792;9.802;2023-01-28T18:05:12;10.73;;;8.40;;
7211;SDS011;3647;48.792;9.802;2023-01-28T18:07:38;9.87;;;7.40;;
7211;SDS011;3647;48.792;9.802;2023-01-28T18:10:06;11.63;;;8.47;;
7211;SDS011;3647;48.792;9.802;2023-01-28T18:12:33;10.67;;;8.60;;
7211;SDS011;3647;48.792;9.802;2023-01-28T18:15:00;10.07;;;8.30;;
7211;SDS011;3647;48.792;9.802;2023-01-28T18:17:27;9.63;;;8.60;;
7211;SDS011;3647;48.792;9.802;2023-01-28T18:19:54;9.37;;;8.30;;
7211;SDS011;3647;48.792;9.802;2023-01-28T18:22:22;9.03;;;8.07;;
7211;SDS011;3647;48.792;9.802;2023-01-28T18:24:49;11.40;;;8.57;;
7211;SDS011;3647;48.792;9.802;2023-01-28T18:27:16;11.60;;;9.00;;
7211;SDS011;3647;48.792;9.802;2023-01-28T18:29:44;13.90;;;8.83;;
7211;SDS011;3647;48.792;9.802;2023-01-28T18:32:11;11.53;;;8.90;;
7211;SDS011;3647;48.792;9.802;2023-01-28T18:34:38;11.23;;;8.20;;
7211;SDS011;3647;48.792;9.802;2023-01-28T18:37:05;10.70;;;8.60;;
7211;SDS011;3647;48.792;9.802;2023-01-28T18:39:35;11.27;;;8.40;;
7211;SDS011;3647;48.792;9.802;2023-01-28T18:42:03;11.93;;;9.00;;
7211;SDS011;3647;48.792;9.802;2023-01-28T18:44:31;12.33;;;8.73;;
7211;SDS011;3647;48.792;9.802;2023-01-28T18:46:58;12.17;;;8.50;;
7211;SDS011;3647;48.792;9.802;2023-01-28T18:49:24;14.63;;;8.87;;
7211;SDS011;3647;48.792;9.802;2023-01-28T18:51:51;10.60;;;7.77;;
7211;SDS011;3647;48.792;9.802;2023-01-28T18:54:18;14.20;;;9.17;;
7211;SDS011;3647;48.792;9.802;2023-01-28T18:56:47;13.53;;;9.10;;
7211;SDS011;3647;48.792;9.802;2023-01-28T18:59:13;17.03;;;9.23;;
7211;SDS011;3647;48.792;9.802;2023-01-28T19:01:40;17.03;;;10.07;;
7211;SDS011;3647;48.792;9.802;2023-01-28T19:04:08;12.40;;;9.27;;
7211;SDS011;3647;48.792;9.802;2023-01-28T19:06:35;14.33;;;10.10;;
7211;SDS011;3647;48.792;9.802;2023-01-28T19:09:03;16.40;;;11.57;;
7211;SDS011;3647;48.792;9.802;2023-01-28T19:11:31;12.43;;;9.70;;
7211;SDS011;3647;48.792;9.802;2023-01-28T19:14:00;14.87;;;10.97;;
7211;SDS011;3647;48.792;9.802;2023-01-28T19:16:27;12.90;;;10.10;;
7211;SDS011;3647;48.792;9.802;2023-01-28T19:18:55;13.27;;;9.87;;
7211;SDS011;3647;48.792;9.802;2023-01-28T19:21:23;10.50;;;8.43;;
7211;SDS011;3647;48.792;9.802;2023-01-28T19:23:54;17.17;;;10.43;;
7211;SDS011;3647;48.792;9.802;2023-01-28T19:26:22;12.47;;;9.70;;
7211;SDS011;3647;48.792;9.802;2023-01-28T19:28:49;13.77;;;9.93;;
7211;SDS011;3647;48.792;9.802;2023-01-28T19:31:17;15.73;;;9.73;;
7211;SDS011;3647;48.792;9.802;2023-01-28T19:33:45;14.57;;;10.00;;
7211;SDS011;3647;48.792;9.802;2023-01-28T19:36:13;11.90;;;8.80;;
7211;SDS011;3647;48.792;9.802;2023-01-28T19:38:40;11.03;;;8.47;;
7211;SDS011;3647;48.792;9.802;2023-01-28T19:41:07;14.53;;;9.83;;
7211;SDS011;3647;48.792;9.802;2023-01-28T19:43:36;16.23;;;10.53;;
7211;SDS011;3647;48.792;9.802;2023-01-28T19:46:04;14.47;;;11.57;;
7211;SDS011;3647;48.792;9.802;2023-01-28T19:48:32;16.57;;;10.40;;
7211;SDS011;3647;48.792;9.802;2023-01-28T19:51:03;20.90;;;11.03;;
7211;SDS011;3647;48.792;9.802;2023-01-28T19:53:31;18.87;;;9.53;;
7211;SDS011;3647;48.792;9.802;2023-01-28T19:55:59;14.73;;;10.63;;
7211;SDS011;3647;48.792;9.802;2023-01-28T19:58:27;13.83;;;10.47;;
7211;SDS011;3647;48.792;9.802;2023-01-28T20:00:54;15.40;;;9.63;;
7211;SDS011;3647;48.792;9.802;2023-01-28T20:03:28;13.97;;;9.20;;
7211;SDS011;3647;48.792;9.802;2023-01-28T20:05:58;13.80;;;9.90;;
7211;SDS011;3647;48.792;9.802;2023-01-28T20:08:25;15.00;;;11.73;;
7211;SDS011;3647;48.792;9.802;2023-01-28T20:10:52;12.77;;;9.57;;
7211;SDS011;3647;48.792;9.802;2023-01-28T20:13:19;15.57;;;10.20;;
7211;SDS011;3647;48.792;9.802;2023-01-28T20:15:46;12.13;;;10.00;;
7211;SDS011;3647;48.792;9.802;2023-01-28T20:18:12;12.80;;;9.20;;
7211;SDS011;3647;48.792;9.802;2023-01-28T20:20:39;12.40;;;10.67;;
7211;SDS011;3647;48.792;9.802;2023-01-28T20:23:07;15.53;;;10.20;;
7211;SDS011;3647;48.792;9.802;2023-01-28T20:25:34;11.03;;;9.73;;
7211;SDS011;3647;48.792;9.802;2023-01-28T20:28:01;14.80;;;9.27;;
7211;SDS011;3647;48.792;9.802;2023-01-28T20:30:27;11.37;;;8.80;;
7211;SDS011;3647;48.792;9.802;2023-01-28T20:32:54;13.63;;;10.13;;
7211;SDS011;3647;48.792;9.802;2023-01-28T20:35:21;13.43;;;9.40;;
7211;SDS011;3647;48.792;9.802;2023-01-28T20:37:48;12.87;;;9.00;;
7211;SDS011;3647;48.792;9.802;2023-01-28T20:40:16;13.33;;;9.87;;
7211;SDS011;3647;48.792;9.802;2023-01-28T20:42:43;11.87;;;9.37;;
7211;SDS011;3647;48.792;9.802;2023-01-28T20:45:10;13.90;;;9.90;;
7211;SDS011;3647;48.792;9.802;2023-01-28T20:47:36;10.97;;;8.57;;
7211;SDS011;3647;48.792;9.802;2023-01-28T20:50:04;12.60;;;8.73;;
7211;SDS011;3647;48.792;9.802;2023-01-28T20:52:31;10.37;;;9.27;;
7211;SDS011;3647;48.792;9.802;2023-01-28T20:54:57;14.30;;;8.90;;
7211;SDS011;3647;48.792;9.802;2023-01-28T20:57:27;10.43;;;8.63;;
7211;SDS011;3647;48.792;9.802;2023-01-28T20:59:53;9.93;;;8.37;;
7211;SDS011;3647;48.792;9.802;2023-01-28T21:02:20;11.13;;;8.67;;
7211;SDS011;3647;48.792;9.802;2023-01-28T21:04:47;9.50;;;8.50;;
7211;SDS011;3647;48.792;9.802;2023-01-28T21:07:14;13.17;;;9.13;;
7211;SDS011;3647;48.792;9.802;2023-01-28T21:09:41;10.73;;;8.50;;
7211;SDS011;3647;48.792;9.802;2023-01-28T21:12:08;10.10;;;8.47;;
7211;SDS011;3647;48.792;9.802;2023-01-28T21:14:36;12.30;;;8.60;;
7211;SDS011;3647;48.792;9.802;2023-01-28T21:17:03;15.40;;;9.37;;
7211;SDS011;3647;48.792;9.802;2023-01-28T21:19:30;10.73;;;8.63;;
7211;SDS011;3647;48.792;9.802;2023-01-28T21:21:57;12.47;;;9.07;;
7211;SDS011;3647;48.792;9.802;2023-01-28T21:24:24;13.27;;;8.80;;
7211;SDS011;3647;48.792;9.802;2023-01-28T21:26:50;12.10;;;10.07;;
7211;SDS011;3647;48.792;9.802;2023-01-28T21:29:17;11.73;;;8.87;;
7211;SDS011;3647;48.792;9.802;2023-01-28T21:31:45;10.30;;;8.47;;
7211;SDS011;3647;48.792;9.802;2023-01-28T21:34:12;10.03;;;9.03;;
7211;SDS011;3647;48.792;9.802;2023-01-28T21:36:40;12.37;;;9.40;;
7211;SDS011;3647;48.792;9.802;2023-01-28T21:39:06;11.13;;;9.03;;
7211;SDS011;3647;48.792;9.802;2023-01-28T21:41:34;10.00;;;9.00;;
7211;SDS011;3647;48.792;9.802;2023-01-28T21:44:01;12.63;;;9.07;;
7211;SDS011;3647;48.792;9.802;2023-01-28T21:46:29;11.07;;;9.67;;
7211;SDS011;3647;48.792;9.802;2023-01-28T21:48:59;15.03;;;10.60;;
7211;SDS011;3647;48.792;9.802;2023-01-28T21:51:27;14.17;;;9.00;;
7211;SDS011;3647;48.792;9.802;2023-01-28T21:54:04;14.73;;;9.67;;
7211;SDS011;3647;48.792;9.802;2023-01-28T21:56:34;10.97;;;8.70;;
7211;SDS011;3647;48.792;9.802;2023-01-28T21:59:01;10.77;;;9.00;;
7211;SDS011;3647;48.792;9.802;2023-01-28T22:01:45;9.00;;;7.57;;
7211;SDS011;3647;48.792;9.802;2023-01-28T22:04:14;11.90;;;9.27;;
7211;SDS011;3647;48.792;9.802;2023-01-28T22:06:41;10.07;;;8.50;;
7211;SDS011;3647;48.792;9.802;2023-01-28T22:09:09;11.87;;;9.60;;
7211;SDS011;3647;48.792;9.802;2023-01-28T22:11:37;13.07;;;9.20;;
7211;SDS011;3647;48.792;9.802;2023-01-28T22:14:04;9.13;;;8.20;;
7211;SDS011;3647;48.792;9.802;2023-01-28T22:16:31;11.93;;;8.90;;
7211;SDS011;3647;48.792;9.802;2023-01-28T22:18:58;11.43;;;9.33;;
7211;SDS011;3647;48.792;9.802;2023-01-28T22:21:26;9.97;;;8.93;;
7211;SDS011;3647;48.792;9.802;2023-01-28T22:23:53;12.23;;;8.80;;
7211;SDS011;3647;48.792;9.802;2023-01-28T22:26:20;10.90;;;9.40;;
7211;SDS011;3647;48.792;9.802;2023-01-28T22:28:47;11.33;;;8.97;;
7211;SDS011;3647;48.792;9.802;2023-01-28T22:31:14;10.53;;;8.60;;
7211;SDS011;3647;48.792;9.802;2023-01-28T22:33:41;8.90;;;8.03;;
7211;SDS011;3647;48.792;9.802;2023-01-28T22:36:10;10.47;;;8.70;;
7211;SDS011;3647;48.792;9.802;2023-01-28T22:38:41;12.30;;;9.77;;
7211;SDS011;3647;48.792;9.802;2023-01-28T22:41:09;10.27;;;8.20;;
7211;SDS011;3647;48.792;9.802;2023-01-28T22:43:37;12.57;;;8.03;;
7211;SDS011;3647;48.792;9.802;2023-01-28T22:46:04;11.10;;;8.97;;
7211;SDS011;3647;48.792;9.802;2023-01-28T22:48:34;14.23;;;9.90;;
7211;SDS011;3647;48.792;9.802;2023-01-28T22:51:02;11.67;;;8.93;;
7211;SDS011;3647;48.792;9.802;2023-01-28T22:53:30;10.00;;;7.97;;
7211;SDS011;3647;48.792;9.802;2023-01-28T22:55:58;9.87;;;8.60;;
7211;SDS011;3647;48.792;9.802;2023-01-28T22:58:26;12.50;;;9.03;;
7211;SDS011;3647;48.792;9.802;2023-01-28T23:00:54;10.57;;;8.80;;
7211;SDS011;3647;48.792;9.802;2023-01-28T23:03:21;10.43;;;8.60;;
7211;SDS011;3647;48.792;9.802;2023-01-28T23:05:48;11.47;;;9.47;;
7211;SDS011;3647;48.792;9.802;2023-01-28T23:08:15;12.33;;;9.07;;
7211;SDS011;3647;48.792;9.802;2023-01-28T23:10:43;11.20;;;8.50;;
7211;SDS011;3647;48.792;9.802;2023-01-28T23:13:16;10.10;;;8.80;;
7211;SDS011;3647;48.792;9.802;2023-01-28T23:15:44;9.70;;;8.67;;
7211;SDS011;3647;48.792;9.802;2023-01-28T23:18:28;9.90;;;8.90;;
7211;SDS011;3647;48.792;9.802;2023-01-28T23:21:13;11.63;;;8.67;;
7211;SDS011;3647;48.792;9.802;2023-01-28T23:24:00;12.90;;;8.40;;
7211;SDS011;3647;48.792;9.802;2023-01-28T23:26:47;10.40;;;8.97;;
7211;SDS011;3647;48.792;9.802;2023-01-28T23:29:17;10.57;;;7.93;;
7211;SDS011;3647;48.792;9.802;2023-01-28T23:31:45;9.47;;;8.47;;
7211;SDS011;3647;48.792;9.802;2023-01-28T23:34:13;10.00;;;8.00;;
7211;SDS011;3647;48.792;9.802;2023-01-28T23:36:41;9.17;;;8.23;;
7211;SDS011;3647;48.792;9.802;2023-01-28T23:39:08;10.73;;;8.57;;
7211;SDS011;3647;48.792;9.802;2023-01-28T23:41:34;11.23;;;7.97;;
7211;SDS011;3647;48.792;9.802;2023-01-28T23:44:01;11.20;;;8.50;;
7211;SDS011;3647;48.792;9.802;2023-01-28T23:46:30;10.27;;;8.57;;
7211;SDS011;3647;48.792;9.802;2023-01-28T23:48:57;9.13;;;8.00;;
7211;SDS011;3647;48.792;9.802;2023-01-28T23:51:24;10.57;;;8.83;;
7211;SDS011;3647;48.792;9.802;2023-01-28T23:53:50;9.90;;;8.00;;
7211;SDS011;3647;48.792;9.802;2023-01-28T23:56:17;9.90;;;7.57;;
7211;SDS011;3647;48.792;9.802;2023-01-28T23:58:44;10.17;;;8.23;;
